sensor_id;sensor_type;location;lat;lon;timestamp;P1;durP1;ratioP1;P2;durP2;ratioP2
68921;SDS011;55959;51.244;5.724;2022-09-25T00:01:21;2.03;;;1.63;;
68921;SDS011;55959;51.244;5.724;2022-09-25T00:03:47;2.97;;;1.57;;
68921;SDS011;55959;51.244;5.724;2022-09-25T00:08:44;5.10;;;1.70;;
68921;SDS011;55959;51.244;5.724;2022-09-25T00:11:14;2.40;;;1.50;;
68921;SDS011;55959;51.244;5.724;2022-09-25T00:13:46;2.87;;;1.40;;
68921;SDS011;55959;51.244;5.724;2022-09-25T00:16:14;2.80;;;1.40;;
68921;SDS011;55959;51.244;5.724;2022-09-25T00:18:42;3.23;;;1.80;;
68921;SDS011;55959;51.244;5.724;2022-09-25T00:21:27;2.90;;;1.70;;
68921;SDS011;55959;51.244;5.724;2022-09-25T00:23:55;3.30;;;1.70;;
68921;SDS011;55959;51.244;5.724;2022-09-25T00:26:24;2.80;;;1.70;;
68921;SDS011;55959;51.244;5.724;2022-09-25T00:28:53;2.80;;;1.67;;
68921;SDS011;55959;51.244;5.724;2022-09-25T00:31:20;3.67;;;1.37;;
68921;SDS011;55959;51.244;5.724;2022-09-25T00:33:49;2.73;;;1.60;;
68921;SDS011;55959;51.244;5.724;2022-09-25T00:36:16;3.83;;;1.83;;
68921;SDS011;55959;51.244;5.724;2022-09-25T00:38:42;3.40;;;1.60;;
68921;SDS011;55959;51.244;5.724;2022-09-25T00:41:10;2.00;;;1.30;;
68921;SDS011;55959;51.244;5.724;2022-09-25T00:43:46;3.97;;;1.63;;
68921;SDS011;55959;51.244;5.724;2022-09-25T00:46:19;4.23;;;1.50;;
68921;SDS011;55959;51.244;5.724;2022-09-25T00:49:02;3.10;;;1.50;;
68921;SDS011;55959;51.244;5.724;2022-09-25T00:52:02;1.87;;;1.60;;
68921;SDS011;55959;51.244;5.724;2022-09-25T00:54:32;2.40;;;1.30;;
68921;SDS011;55959;51.244;5.724;2022-09-25T00:57:06;4.17;;;1.77;;
68921;SDS011;55959;51.244;5.724;2022-09-25T00:59:45;4.63;;;1.50;;
68921;SDS011;55959;51.244;5.724;2022-09-25T01:02:34;2.77;;;1.30;;
68921;SDS011;55959;51.244;5.724;2022-09-25T01:05:07;2.13;;;1.23;;
68921;SDS011;55959;51.244;5.724;2022-09-25T01:07:39;3.57;;;1.20;;
68921;SDS011;55959;51.244;5.724;2022-09-25T01:10:09;2.17;;;1.10;;
68921;SDS011;55959;51.244;5.724;2022-09-25T01:12:40;2.93;;;1.33;;
68921;SDS011;55959;51.244;5.724;2022-09-25T01:15:10;2.47;;;1.30;;
68921;SDS011;55959;51.244;5.724;2022-09-25T01:35:29;2.47;;;1.20;;
68921;SDS011;55959;51.244;5.724;2022-09-25T01:41:15;3.37;;;0.93;;
68921;SDS011;55959;51.244;5.724;2022-09-25T01:46:34;1.90;;;0.80;;
68921;SDS011;55959;51.244;5.724;2022-09-25T01:49:25;4.40;;;1.00;;
68921;SDS011;55959;51.244;5.724;2022-09-25T01:52:00;3.40;;;1.20;;
68921;SDS011;55959;51.244;5.724;2022-09-25T01:54:35;2.57;;;0.83;;
68921;SDS011;55959;51.244;5.724;2022-09-25T02:00:00;3.47;;;1.10;;
68921;SDS011;55959;51.244;5.724;2022-09-25T02:02:44;4.10;;;1.00;;
68921;SDS011;55959;51.244;5.724;2022-09-25T02:08:24;2.63;;;0.90;;
68921;SDS011;55959;51.244;5.724;2022-09-25T02:11:00;4.83;;;1.30;;
68921;SDS011;55959;51.244;5.724;2022-09-25T02:13:37;2.60;;;0.87;;
68921;SDS011;55959;51.244;5.724;2022-09-25T02:16:15;1.77;;;1.00;;
68921;SDS011;55959;51.244;5.724;2022-09-25T02:18:46;3.73;;;0.90;;
68921;SDS011;55959;51.244;5.724;2022-09-25T02:21:39;2.50;;;0.90;;
68921;SDS011;55959;51.244;5.724;2022-09-25T02:26:51;3.97;;;0.90;;
68921;SDS011;55959;51.244;5.724;2022-09-25T02:29:17;2.10;;;0.97;;
68921;SDS011;55959;51.244;5.724;2022-09-25T02:31:49;3.13;;;1.10;;
68921;SDS011;55959;51.244;5.724;2022-09-25T02:34:20;3.93;;;1.20;;
68921;SDS011;55959;51.244;5.724;2022-09-25T02:36:46;2.13;;;0.93;;
68921;SDS011;55959;51.244;5.724;2022-09-25T02:39:12;4.33;;;1.23;;
68921;SDS011;55959;51.244;5.724;2022-09-25T02:44:27;2.87;;;1.20;;
68921;SDS011;55959;51.244;5.724;2022-09-25T02:50:41;3.73;;;1.20;;
68921;SDS011;55959;51.244;5.724;2022-09-25T02:59:02;3.40;;;1.00;;
68921;SDS011;55959;51.244;5.724;2022-09-25T03:01:34;2.03;;;0.93;;
68921;SDS011;55959;51.244;5.724;2022-09-25T03:04:03;2.03;;;1.00;;
68921;SDS011;55959;51.244;5.724;2022-09-25T03:06:30;2.47;;;1.33;;
68921;SDS011;55959;51.244;5.724;2022-09-25T03:08:56;2.57;;;0.90;;
68921;SDS011;55959;51.244;5.724;2022-09-25T03:11:24;3.13;;;1.00;;
68921;SDS011;55959;51.244;5.724;2022-09-25T03:13:55;1.90;;;0.80;;
68921;SDS011;55959;51.244;5.724;2022-09-25T03:18:59;3.23;;;1.00;;
68921;SDS011;55959;51.244;5.724;2022-09-25T03:21:27;3.10;;;1.13;;
68921;SDS011;55959;51.244;5.724;2022-09-25T03:23:53;3.77;;;1.00;;
68921;SDS011;55959;51.244;5.724;2022-09-25T03:26:21;3.63;;;1.13;;
68921;SDS011;55959;51.244;5.724;2022-09-25T03:28:48;2.83;;;1.10;;
68921;SDS011;55959;51.244;5.724;2022-09-25T03:31:15;5.47;;;1.10;;
68921;SDS011;55959;51.244;5.724;2022-09-25T03:33:41;3.93;;;1.10;;
68921;SDS011;55959;51.244;5.724;2022-09-25T03:36:27;2.57;;;1.20;;
68921;SDS011;55959;51.244;5.724;2022-09-25T03:38:55;2.07;;;0.77;;
68921;SDS011;55959;51.244;5.724;2022-09-25T03:41:26;3.70;;;1.33;;
68921;SDS011;55959;51.244;5.724;2022-09-25T03:43:55;2.00;;;0.80;;
68921;SDS011;55959;51.244;5.724;2022-09-25T03:46:25;1.53;;;1.07;;
68921;SDS011;55959;51.244;5.724;2022-09-25T03:48:58;1.87;;;1.00;;
68921;SDS011;55959;51.244;5.724;2022-09-25T03:51:26;3.40;;;1.50;;
68921;SDS011;55959;51.244;5.724;2022-09-25T03:53:53;2.80;;;1.00;;
68921;SDS011;55959;51.244;5.724;2022-09-25T03:56:20;3.07;;;1.17;;
68921;SDS011;55959;51.244;5.724;2022-09-25T03:58:50;4.27;;;1.50;;
68921;SDS011;55959;51.244;5.724;2022-09-25T04:01:18;2.60;;;1.10;;
68921;SDS011;55959;51.244;5.724;2022-09-25T04:03:44;2.87;;;1.30;;
68921;SDS011;55959;51.244;5.724;2022-09-25T04:06:11;2.30;;;0.90;;
68921;SDS011;55959;51.244;5.724;2022-09-25T04:08:42;2.80;;;1.07;;
68921;SDS011;55959;51.244;5.724;2022-09-25T04:11:09;3.13;;;1.03;;
68921;SDS011;55959;51.244;5.724;2022-09-25T04:13:35;4.37;;;1.30;;
68921;SDS011;55959;51.244;5.724;2022-09-25T04:16:02;2.37;;;1.10;;
68921;SDS011;55959;51.244;5.724;2022-09-25T04:18:30;1.70;;;0.90;;
68921;SDS011;55959;51.244;5.724;2022-09-25T04:20:57;3.43;;;1.40;;
68921;SDS011;55959;51.244;5.724;2022-09-25T04:23:29;4.37;;;1.30;;
68921;SDS011;55959;51.244;5.724;2022-09-25T04:25:56;2.77;;;1.10;;
68921;SDS011;55959;51.244;5.724;2022-09-25T04:28:22;2.60;;;1.10;;
68921;SDS011;55959;51.244;5.724;2022-09-25T04:30:48;2.73;;;1.07;;
68921;SDS011;55959;51.244;5.724;2022-09-25T04:33:15;2.40;;;0.83;;
68921;SDS011;55959;51.244;5.724;2022-09-25T04:36:00;3.20;;;1.20;;
68921;SDS011;55959;51.244;5.724;2022-09-25T04:38:27;2.60;;;1.10;;
68921;SDS011;55959;51.244;5.724;2022-09-25T04:40:56;4.37;;;1.03;;
68921;SDS011;55959;51.244;5.724;2022-09-25T04:43:29;2.23;;;1.00;;
68921;SDS011;55959;51.244;5.724;2022-09-25T04:46:14;3.83;;;1.00;;
68921;SDS011;55959;51.244;5.724;2022-09-25T04:48:45;2.67;;;0.97;;
68921;SDS011;55959;51.244;5.724;2022-09-25T04:51:10;2.90;;;0.90;;
68921;SDS011;55959;51.244;5.724;2022-09-25T04:53:37;3.80;;;1.50;;
68921;SDS011;55959;51.244;5.724;2022-09-25T04:56:04;3.80;;;1.40;;
68921;SDS011;55959;51.244;5.724;2022-09-25T04:58:32;2.67;;;1.10;;
68921;SDS011;55959;51.244;5.724;2022-09-25T05:01:03;1.57;;;0.90;;
68921;SDS011;55959;51.244;5.724;2022-09-25T05:03:33;3.70;;;1.37;;
68921;SDS011;55959;51.244;5.724;2022-09-25T05:05:59;2.77;;;1.30;;
68921;SDS011;55959;51.244;5.724;2022-09-25T05:08:25;3.07;;;1.20;;
68921;SDS011;55959;51.244;5.724;2022-09-25T05:10:51;1.97;;;1.07;;
68921;SDS011;55959;51.244;5.724;2022-09-25T05:13:17;1.73;;;1.10;;
68921;SDS011;55959;51.244;5.724;2022-09-25T05:15:43;2.53;;;1.10;;
68921;SDS011;55959;51.244;5.724;2022-09-25T05:20:47;1.83;;;0.97;;
68921;SDS011;55959;51.244;5.724;2022-09-25T05:23:13;3.27;;;1.47;;
68921;SDS011;55959;51.244;5.724;2022-09-25T05:25:39;2.70;;;1.30;;
68921;SDS011;55959;51.244;5.724;2022-09-25T05:28:05;2.07;;;1.00;;
68921;SDS011;55959;51.244;5.724;2022-09-25T05:30:32;2.43;;;1.60;;
68921;SDS011;55959;51.244;5.724;2022-09-25T05:33:00;2.80;;;1.40;;
68921;SDS011;55959;51.244;5.724;2022-09-25T05:35:27;3.33;;;1.37;;
68921;SDS011;55959;51.244;5.724;2022-09-25T05:37:56;3.77;;;1.40;;
68921;SDS011;55959;51.244;5.724;2022-09-25T05:40:22;2.87;;;1.40;;
68921;SDS011;55959;51.244;5.724;2022-09-25T05:42:48;3.93;;;1.30;;
68921;SDS011;55959;51.244;5.724;2022-09-25T05:45:15;2.10;;;1.30;;
68921;SDS011;55959;51.244;5.724;2022-09-25T05:47:42;1.93;;;1.30;;
68921;SDS011;55959;51.244;5.724;2022-09-25T05:50:09;3.57;;;1.37;;
68921;SDS011;55959;51.244;5.724;2022-09-25T05:52:37;5.13;;;1.43;;
68921;SDS011;55959;51.244;5.724;2022-09-25T05:55:04;2.30;;;1.10;;
68921;SDS011;55959;51.244;5.724;2022-09-25T05:57:32;3.53;;;1.50;;
68921;SDS011;55959;51.244;5.724;2022-09-25T05:59:59;2.27;;;1.27;;
68921;SDS011;55959;51.244;5.724;2022-09-25T06:02:29;3.23;;;1.60;;
68921;SDS011;55959;51.244;5.724;2022-09-25T06:04:55;2.47;;;1.50;;
68921;SDS011;55959;51.244;5.724;2022-09-25T06:07:20;4.17;;;1.30;;
68921;SDS011;55959;51.244;5.724;2022-09-25T06:09:46;1.87;;;1.20;;
68921;SDS011;55959;51.244;5.724;2022-09-25T06:12:12;3.00;;;1.30;;
68921;SDS011;55959;51.244;5.724;2022-09-25T06:14:38;3.43;;;1.60;;
68921;SDS011;55959;51.244;5.724;2022-09-25T06:17:04;3.47;;;1.37;;
68921;SDS011;55959;51.244;5.724;2022-09-25T06:19:31;1.90;;;1.23;;
68921;SDS011;55959;51.244;5.724;2022-09-25T06:21:57;2.23;;;1.50;;
68921;SDS011;55959;51.244;5.724;2022-09-25T06:24:23;2.87;;;1.40;;
68921;SDS011;55959;51.244;5.724;2022-09-25T06:26:48;2.83;;;1.33;;
68921;SDS011;55959;51.244;5.724;2022-09-25T06:29:14;1.90;;;1.20;;
68921;SDS011;55959;51.244;5.724;2022-09-25T06:31:40;2.87;;;1.20;;
68921;SDS011;55959;51.244;5.724;2022-09-25T06:34:07;3.33;;;1.40;;
68921;SDS011;55959;51.244;5.724;2022-09-25T06:36:35;3.20;;;1.23;;
68921;SDS011;55959;51.244;5.724;2022-09-25T06:39:02;3.03;;;1.33;;
68921;SDS011;55959;51.244;5.724;2022-09-25T06:41:28;2.97;;;1.40;;
68921;SDS011;55959;51.244;5.724;2022-09-25T06:43:53;2.37;;;1.40;;
68921;SDS011;55959;51.244;5.724;2022-09-25T06:46:19;3.43;;;1.40;;
68921;SDS011;55959;51.244;5.724;2022-09-25T06:48:49;1.83;;;1.10;;
68921;SDS011;55959;51.244;5.724;2022-09-25T06:51:19;2.63;;;1.60;;
68921;SDS011;55959;51.244;5.724;2022-09-25T06:53:46;2.47;;;1.40;;
68921;SDS011;55959;51.244;5.724;2022-09-25T06:56:12;1.90;;;1.20;;
68921;SDS011;55959;51.244;5.724;2022-09-25T06:58:38;2.17;;;1.33;;
68921;SDS011;55959;51.244;5.724;2022-09-25T07:01:04;2.57;;;1.30;;
68921;SDS011;55959;51.244;5.724;2022-09-25T07:03:34;2.40;;;1.30;;
68921;SDS011;55959;51.244;5.724;2022-09-25T07:06:10;3.50;;;1.27;;
68921;SDS011;55959;51.244;5.724;2022-09-25T07:08:41;2.27;;;1.50;;
68921;SDS011;55959;51.244;5.724;2022-09-25T07:11:26;2.63;;;1.60;;
68921;SDS011;55959;51.244;5.724;2022-09-25T07:13:52;2.33;;;1.30;;
68921;SDS011;55959;51.244;5.724;2022-09-25T07:16:29;3.60;;;1.63;;
68921;SDS011;55959;51.244;5.724;2022-09-25T07:18:58;2.80;;;1.57;;
68921;SDS011;55959;51.244;5.724;2022-09-25T07:21:25;2.77;;;1.83;;
68921;SDS011;55959;51.244;5.724;2022-09-25T07:23:53;3.37;;;1.70;;
68921;SDS011;55959;51.244;5.724;2022-09-25T07:26:20;2.77;;;1.50;;
68921;SDS011;55959;51.244;5.724;2022-09-25T07:29:07;4.00;;;1.73;;
68921;SDS011;55959;51.244;5.724;2022-09-25T07:31:33;1.70;;;1.60;;
68921;SDS011;55959;51.244;5.724;2022-09-25T07:34:02;2.00;;;1.43;;
68921;SDS011;55959;51.244;5.724;2022-09-25T07:36:33;2.23;;;1.80;;
68921;SDS011;55959;51.244;5.724;2022-09-25T07:39:02;2.60;;;1.60;;
68921;SDS011;55959;51.244;5.724;2022-09-25T07:41:28;1.87;;;1.37;;
68921;SDS011;55959;51.244;5.724;2022-09-25T07:43:54;1.50;;;1.33;;
68921;SDS011;55959;51.244;5.724;2022-09-25T07:46:22;3.70;;;1.70;;
68921;SDS011;55959;51.244;5.724;2022-09-25T07:48:49;1.67;;;1.43;;
68921;SDS011;55959;51.244;5.724;2022-09-25T07:51:15;3.63;;;1.53;;
68921;SDS011;55959;51.244;5.724;2022-09-25T07:53:41;3.03;;;1.80;;
68921;SDS011;55959;51.244;5.724;2022-09-25T07:56:08;2.13;;;1.77;;
68921;SDS011;55959;51.244;5.724;2022-09-25T07:58:36;2.97;;;1.93;;
68921;SDS011;55959;51.244;5.724;2022-09-25T08:01:03;2.10;;;1.67;;
68921;SDS011;55959;51.244;5.724;2022-09-25T08:03:32;2.87;;;1.47;;
68921;SDS011;55959;51.244;5.724;2022-09-25T08:05:58;2.90;;;1.63;;
68921;SDS011;55959;51.244;5.724;2022-09-25T08:08:30;2.17;;;1.57;;
68921;SDS011;55959;51.244;5.724;2022-09-25T08:10:59;2.97;;;1.40;;
68921;SDS011;55959;51.244;5.724;2022-09-25T08:13:26;3.67;;;1.37;;
68921;SDS011;55959;51.244;5.724;2022-09-25T08:15:54;1.90;;;1.20;;
68921;SDS011;55959;51.244;5.724;2022-09-25T08:18:20;3.33;;;1.30;;
68921;SDS011;55959;51.244;5.724;2022-09-25T08:20:46;3.63;;;1.50;;
68921;SDS011;55959;51.244;5.724;2022-09-25T08:23:11;2.17;;;1.40;;
68921;SDS011;55959;51.244;5.724;2022-09-25T08:25:37;3.57;;;1.30;;
68921;SDS011;55959;51.244;5.724;2022-09-25T08:28:03;1.33;;;1.10;;
68921;SDS011;55959;51.244;5.724;2022-09-25T08:30:28;3.57;;;1.30;;
68921;SDS011;55959;51.244;5.724;2022-09-25T08:32:54;2.23;;;1.40;;
68921;SDS011;55959;51.244;5.724;2022-09-25T08:35:20;3.00;;;1.30;;
68921;SDS011;55959;51.244;5.724;2022-09-25T08:37:46;3.90;;;1.40;;
68921;SDS011;55959;51.244;5.724;2022-09-25T08:40:19;2.13;;;1.13;;
68921;SDS011;55959;51.244;5.724;2022-09-25T08:42:54;3.63;;;1.43;;
68921;SDS011;55959;51.244;5.724;2022-09-25T08:45:26;5.40;;;1.47;;
68921;SDS011;55959;51.244;5.724;2022-09-25T08:48:23;2.57;;;1.30;;
68921;SDS011;55959;51.244;5.724;2022-09-25T08:51:14;2.77;;;1.20;;
68921;SDS011;55959;51.244;5.724;2022-09-25T08:53:40;2.93;;;1.40;;
68921;SDS011;55959;51.244;5.724;2022-09-25T08:56:09;4.70;;;1.30;;
68921;SDS011;55959;51.244;5.724;2022-09-25T09:02:00;4.40;;;1.07;;
68921;SDS011;55959;51.244;5.724;2022-09-25T09:04:37;1.47;;;1.17;;
68921;SDS011;55959;51.244;5.724;2022-09-25T09:07:25;2.33;;;1.00;;
68921;SDS011;55959;51.244;5.724;2022-09-25T09:12:48;2.57;;;1.10;;
68921;SDS011;55959;51.244;5.724;2022-09-25T09:17:53;1.87;;;1.13;;
68921;SDS011;55959;51.244;5.724;2022-09-25T09:20:23;2.53;;;0.80;;
68921;SDS011;55959;51.244;5.724;2022-09-25T09:23:05;5.43;;;1.30;;
68921;SDS011;55959;51.244;5.724;2022-09-25T09:25:53;3.53;;;0.80;;
68921;SDS011;55959;51.244;5.724;2022-09-25T09:28:43;1.20;;;0.83;;
68921;SDS011;55959;51.244;5.724;2022-09-25T09:34:45;2.07;;;1.00;;
68921;SDS011;55959;51.244;5.724;2022-09-25T09:46:31;3.13;;;0.80;;
68921;SDS011;55959;51.244;5.724;2022-09-25T09:49:40;1.10;;;0.50;;
68921;SDS011;55959;51.244;5.724;2022-09-25T09:52:18;1.40;;;0.70;;
68921;SDS011;55959;51.244;5.724;2022-09-25T09:54:56;1.20;;;0.47;;
68921;SDS011;55959;51.244;5.724;2022-09-25T09:57:52;2.30;;;0.53;;
68921;SDS011;55959;51.244;5.724;2022-09-25T10:00:22;1.40;;;0.40;;
68921;SDS011;55959;51.244;5.724;2022-09-25T10:05:33;2.37;;;0.60;;
68921;SDS011;55959;51.244;5.724;2022-09-25T10:08:05;0.60;;;0.40;;
68921;SDS011;55959;51.244;5.724;2022-09-25T10:10:34;2.10;;;0.80;;
68921;SDS011;55959;51.244;5.724;2022-09-25T10:13:18;1.97;;;0.60;;
68921;SDS011;55959;51.244;5.724;2022-09-25T10:16:02;2.30;;;0.73;;
68921;SDS011;55959;51.244;5.724;2022-09-25T10:19:16;2.20;;;0.93;;
68921;SDS011;55959;51.244;5.724;2022-09-25T10:27:24;2.93;;;1.23;;
68921;SDS011;55959;51.244;5.724;2022-09-25T10:32:43;1.70;;;0.70;;
68921;SDS011;55959;51.244;5.724;2022-09-25T10:35:28;1.40;;;0.60;;
68921;SDS011;55959;51.244;5.724;2022-09-25T10:38:01;2.60;;;0.77;;
68921;SDS011;55959;51.244;5.724;2022-09-25T10:40:31;1.77;;;0.80;;
68921;SDS011;55959;51.244;5.724;2022-09-25T10:43:04;2.73;;;0.80;;
68921;SDS011;55959;51.244;5.724;2022-09-25T10:45:35;1.83;;;0.50;;
68921;SDS011;55959;51.244;5.724;2022-09-25T10:51:14;2.15;;;0.82;;
68921;SDS011;55959;51.244;5.724;2022-09-25T10:53:42;2.80;;;1.00;;
68921;SDS011;55959;51.244;5.724;2022-09-25T10:56:10;1.97;;;0.90;;
68921;SDS011;55959;51.244;5.724;2022-09-25T10:58:42;2.07;;;0.80;;
68921;SDS011;55959;51.244;5.724;2022-09-25T11:01:19;2.97;;;1.10;;
68921;SDS011;55959;51.244;5.724;2022-09-25T11:03:54;3.83;;;1.07;;
68921;SDS011;55959;51.244;5.724;2022-09-25T11:06:25;4.83;;;0.80;;
68921;SDS011;55959;51.244;5.724;2022-09-25T11:11:44;3.63;;;1.00;;
68921;SDS011;55959;51.244;5.724;2022-09-25T11:14:29;2.43;;;1.00;;
68921;SDS011;55959;51.244;5.724;2022-09-25T11:16:59;1.77;;;0.70;;
68921;SDS011;55959;51.244;5.724;2022-09-25T11:19:35;1.67;;;0.60;;
68921;SDS011;55959;51.244;5.724;2022-09-25T11:22:19;3.30;;;0.87;;
68921;SDS011;55959;51.244;5.724;2022-09-25T11:28:07;2.30;;;0.80;;
68921;SDS011;55959;51.244;5.724;2022-09-25T11:30:44;1.40;;;0.70;;
68921;SDS011;55959;51.244;5.724;2022-09-25T11:33:41;0.70;;;0.50;;
68921;SDS011;55959;51.244;5.724;2022-09-25T11:36:30;2.53;;;0.98;;
68921;SDS011;55959;51.244;5.724;2022-09-25T11:39:10;1.33;;;0.80;;
68921;SDS011;55959;51.244;5.724;2022-09-25T11:42:12;2.38;;;0.70;;
68921;SDS011;55959;51.244;5.724;2022-09-25T11:45:04;1.55;;;0.80;;
68921;SDS011;55959;51.244;5.724;2022-09-25T11:48:05;2.60;;;0.77;;
68921;SDS011;55959;51.244;5.724;2022-09-25T11:56:41;2.88;;;0.70;;
68921;SDS011;55959;51.244;5.724;2022-09-25T11:59:38;2.28;;;0.68;;
68921;SDS011;55959;51.244;5.724;2022-09-25T12:12:38;2.13;;;0.90;;
68921;SDS011;55959;51.244;5.724;2022-09-25T12:18:02;2.15;;;0.70;;
68921;SDS011;55959;51.244;5.724;2022-09-25T12:26:12;1.02;;;0.57;;
68921;SDS011;55959;51.244;5.724;2022-09-25T12:37:38;1.48;;;0.60;;
68921;SDS011;55959;51.244;5.724;2022-09-25T12:40:13;1.50;;;0.75;;
68921;SDS011;55959;51.244;5.724;2022-09-25T12:45:56;0.75;;;0.47;;
68921;SDS011;55959;51.244;5.724;2022-09-25T12:48:37;1.35;;;0.50;;
68921;SDS011;55959;51.244;5.724;2022-09-25T12:51:18;2.00;;;0.40;;
68921;SDS011;55959;51.244;5.724;2022-09-25T12:53:57;2.60;;;0.63;;
68921;SDS011;55959;51.244;5.724;2022-09-25T12:56:49;1.90;;;0.73;;
68921;SDS011;55959;51.244;5.724;2022-09-25T12:59:36;1.90;;;0.65;;
68921;SDS011;55959;51.244;5.724;2022-09-25T13:02:20;1.00;;;0.60;;
68921;SDS011;55959;51.244;5.724;2022-09-25T13:05:31;1.02;;;0.50;;
68921;SDS011;55959;51.244;5.724;2022-09-25T13:11:09;1.65;;;0.60;;
68921;SDS011;55959;51.244;5.724;2022-09-25T13:13:43;2.10;;;0.70;;
68921;SDS011;55959;51.244;5.724;2022-09-25T13:16:15;1.38;;;0.60;;
68921;SDS011;55959;51.244;5.724;2022-09-25T13:18:48;1.33;;;0.50;;
68921;SDS011;55959;51.244;5.724;2022-09-25T13:21:49;2.08;;;0.70;;
68921;SDS011;55959;51.244;5.724;2022-09-25T13:24:15;2.13;;;0.47;;
68921;SDS011;55959;51.244;5.724;2022-09-25T13:26:43;0.60;;;0.40;;
68921;SDS011;55959;51.244;5.724;2022-09-25T13:32:00;1.02;;;0.50;;
68921;SDS011;55959;51.244;5.724;2022-09-25T13:34:43;1.10;;;0.50;;
68921;SDS011;55959;51.244;5.724;2022-09-25T13:37:10;1.17;;;0.40;;
68921;SDS011;55959;51.244;5.724;2022-09-25T13:39:46;0.63;;;0.47;;
68921;SDS011;55959;51.244;5.724;2022-09-25T13:48:11;1.60;;;0.50;;
68921;SDS011;55959;51.244;5.724;2022-09-25T14:01:41;0.85;;;0.45;;
68921;SDS011;55959;51.244;5.724;2022-09-25T14:06:39;1.33;;;0.50;;
68921;SDS011;55959;51.244;5.724;2022-09-25T14:09:08;1.20;;;0.65;;
68921;SDS011;55959;51.244;5.724;2022-09-25T14:11:49;1.25;;;0.55;;
68921;SDS011;55959;51.244;5.724;2022-09-25T14:14:44;0.98;;;0.50;;
68921;SDS011;55959;51.244;5.724;2022-09-25T14:17:20;1.60;;;0.47;;
68921;SDS011;55959;51.244;5.724;2022-09-25T14:19:53;2.40;;;0.55;;
68921;SDS011;55959;51.244;5.724;2022-09-25T14:22:31;4.15;;;0.75;;
68921;SDS011;55959;51.244;5.724;2022-09-25T14:25:00;2.15;;;0.50;;
68921;SDS011;55959;51.244;5.724;2022-09-25T14:27:26;2.65;;;0.45;;
68921;SDS011;55959;51.244;5.724;2022-09-25T14:30:06;1.60;;;0.40;;
68921;SDS011;55959;51.244;5.724;2022-09-25T14:38:42;0.90;;;0.57;;
68921;SDS011;55959;51.244;5.724;2022-09-25T14:47:29;1.85;;;0.70;;
68921;SDS011;55959;51.244;5.724;2022-09-25T14:49:59;1.00;;;0.35;;
68921;SDS011;55959;51.244;5.724;2022-09-25T14:52:27;1.77;;;0.47;;
68921;SDS011;55959;51.244;5.724;2022-09-25T14:54:56;2.72;;;0.88;;
68921;SDS011;55959;51.244;5.724;2022-09-25T14:57:31;1.38;;;0.55;;
68921;SDS011;55959;51.244;5.724;2022-09-25T15:00:06;1.90;;;0.68;;
68921;SDS011;55959;51.244;5.724;2022-09-25T15:02:40;0.98;;;0.40;;
68921;SDS011;55959;51.244;5.724;2022-09-25T15:07:51;2.25;;;0.38;;
68921;SDS011;55959;51.244;5.724;2022-09-25T15:15:57;1.75;;;0.57;;
68921;SDS011;55959;51.244;5.724;2022-09-25T15:18:43;1.50;;;0.40;;
68921;SDS011;55959;51.244;5.724;2022-09-25T15:21:25;2.00;;;0.60;;
68921;SDS011;55959;51.244;5.724;2022-09-25T15:23:57;1.38;;;0.52;;
68921;SDS011;55959;51.244;5.724;2022-09-25T15:26:36;0.50;;;0.35;;
68921;SDS011;55959;51.244;5.724;2022-09-25T15:29:13;1.13;;;0.50;;
68921;SDS011;55959;51.244;5.724;2022-09-25T15:31:46;1.25;;;0.50;;
68921;SDS011;55959;51.244;5.724;2022-09-25T15:34:21;1.48;;;0.50;;
68921;SDS011;55959;51.244;5.724;2022-09-25T15:36:53;2.38;;;0.50;;
68921;SDS011;55959;51.244;5.724;2022-09-25T15:39:41;1.52;;;0.70;;
68921;SDS011;55959;51.244;5.724;2022-09-25T15:42:14;1.98;;;0.70;;
68921;SDS011;55959;51.244;5.724;2022-09-25T15:44:40;2.15;;;0.80;;
68921;SDS011;55959;51.244;5.724;2022-09-25T15:47:06;1.20;;;0.50;;
68921;SDS011;55959;51.244;5.724;2022-09-25T15:50:00;3.30;;;0.70;;
68921;SDS011;55959;51.244;5.724;2022-09-25T15:52:30;1.55;;;0.60;;
68921;SDS011;55959;51.244;5.724;2022-09-25T15:55:02;1.35;;;0.65;;
68921;SDS011;55959;51.244;5.724;2022-09-25T15:57:34;1.92;;;0.77;;
68921;SDS011;55959;51.244;5.724;2022-09-25T16:00:04;1.10;;;0.80;;
68921;SDS011;55959;51.244;5.724;2022-09-25T16:02:59;1.88;;;0.70;;
68921;SDS011;55959;51.244;5.724;2022-09-25T16:05:52;1.35;;;0.70;;
68921;SDS011;55959;51.244;5.724;2022-09-25T16:10:49;0.95;;;0.47;;
68921;SDS011;55959;51.244;5.724;2022-09-25T16:13:27;1.85;;;0.50;;
68921;SDS011;55959;51.244;5.724;2022-09-25T16:15:53;1.38;;;0.50;;
68921;SDS011;55959;51.244;5.724;2022-09-25T16:23:54;1.33;;;0.60;;
68921;SDS011;55959;51.244;5.724;2022-09-25T16:26:21;1.05;;;0.70;;
68921;SDS011;55959;51.244;5.724;2022-09-25T16:31:27;1.73;;;0.80;;
68921;SDS011;55959;51.244;5.724;2022-09-25T16:33:53;2.53;;;1.13;;
68921;SDS011;55959;51.244;5.724;2022-09-25T16:36:22;1.05;;;0.60;;
68921;SDS011;55959;51.244;5.724;2022-09-25T16:39:02;2.38;;;0.65;;
68921;SDS011;55959;51.244;5.724;2022-09-25T16:41:45;0.98;;;0.60;;
68921;SDS011;55959;51.244;5.724;2022-09-25T16:49:20;1.70;;;0.77;;
68921;SDS011;55959;51.244;5.724;2022-09-25T16:51:47;1.95;;;0.70;;
68921;SDS011;55959;51.244;5.724;2022-09-25T16:54:15;1.95;;;0.90;;
68921;SDS011;55959;51.244;5.724;2022-09-25T16:56:44;2.35;;;0.90;;
68921;SDS011;55959;51.244;5.724;2022-09-25T17:01:41;1.67;;;0.60;;
68921;SDS011;55959;51.244;5.724;2022-09-25T17:04:08;2.63;;;0.70;;
68921;SDS011;55959;51.244;5.724;2022-09-25T17:06:36;1.67;;;0.70;;
68921;SDS011;55959;51.244;5.724;2022-09-25T17:09:07;1.92;;;0.70;;
68921;SDS011;55959;51.244;5.724;2022-09-25T17:11:40;2.05;;;0.85;;
68921;SDS011;55959;51.244;5.724;2022-09-25T17:14:20;2.70;;;0.90;;
68921;SDS011;55959;51.244;5.724;2022-09-25T17:16:49;0.80;;;0.70;;
68921;SDS011;55959;51.244;5.724;2022-09-25T17:19:17;1.27;;;0.80;;
68921;SDS011;55959;51.244;5.724;2022-09-25T17:21:44;2.57;;;0.90;;
68921;SDS011;55959;51.244;5.724;2022-09-25T17:24:15;0.80;;;0.55;;
68921;SDS011;55959;51.244;5.724;2022-09-25T17:26:43;2.30;;;0.90;;
68921;SDS011;55959;51.244;5.724;2022-09-25T17:29:09;1.13;;;0.57;;
68921;SDS011;55959;51.244;5.724;2022-09-25T17:31:35;1.08;;;0.65;;
68921;SDS011;55959;51.244;5.724;2022-09-25T17:34:01;1.17;;;0.67;;
68921;SDS011;55959;51.244;5.724;2022-09-25T17:36:49;1.77;;;0.70;;
68921;SDS011;55959;51.244;5.724;2022-09-25T17:39:15;1.38;;;0.50;;
68921;SDS011;55959;51.244;5.724;2022-09-25T17:41:41;1.97;;;0.90;;
68921;SDS011;55959;51.244;5.724;2022-09-25T17:44:08;2.93;;;0.70;;
68921;SDS011;55959;51.244;5.724;2022-09-25T17:46:49;2.40;;;0.90;;
68921;SDS011;55959;51.244;5.724;2022-09-25T17:49:15;2.13;;;0.70;;
68921;SDS011;55959;51.244;5.724;2022-09-25T17:51:41;0.73;;;0.40;;
68921;SDS011;55959;51.244;5.724;2022-09-25T17:54:08;1.10;;;0.73;;
68921;SDS011;55959;51.244;5.724;2022-09-25T17:56:35;2.23;;;0.73;;
68921;SDS011;55959;51.244;5.724;2022-09-25T17:59:03;1.10;;;0.67;;
68921;SDS011;55959;51.244;5.724;2022-09-25T18:01:30;1.97;;;0.63;;
68921;SDS011;55959;51.244;5.724;2022-09-25T18:03:58;2.10;;;0.70;;
68921;SDS011;55959;51.244;5.724;2022-09-25T18:06:31;1.53;;;0.97;;
68921;SDS011;55959;51.244;5.724;2022-09-25T18:08:56;1.17;;;0.60;;
68921;SDS011;55959;51.244;5.724;2022-09-25T18:11:23;1.77;;;0.90;;
68921;SDS011;55959;51.244;5.724;2022-09-25T18:13:53;2.00;;;0.90;;
68921;SDS011;55959;51.244;5.724;2022-09-25T18:16:26;2.67;;;1.00;;
68921;SDS011;55959;51.244;5.724;2022-09-25T18:18:55;2.20;;;0.83;;
68921;SDS011;55959;51.244;5.724;2022-09-25T18:21:39;3.87;;;1.00;;
68921;SDS011;55959;51.244;5.724;2022-09-25T18:24:23;1.43;;;1.00;;
68921;SDS011;55959;51.244;5.724;2022-09-25T18:26:50;3.00;;;1.07;;
68921;SDS011;55959;51.244;5.724;2022-09-25T18:29:18;1.90;;;0.90;;
68921;SDS011;55959;51.244;5.724;2022-09-25T18:31:45;2.73;;;1.17;;
68921;SDS011;55959;51.244;5.724;2022-09-25T18:34:12;1.57;;;0.90;;